createdAt,value
2019-03-23T00:01:52.375Z,13.13
2019-03-23T00:06:56.120Z,12.87
2019-03-23T00:11:59.862Z,14.00
2019-03-23T00:17:03.620Z,13.80
2019-03-23T00:22:07.327Z,13.87
2019-03-23T00:27:11.342Z,12.67
2019-03-23T00:32:15.035Z,13.70
2019-03-23T00:37:18.990Z,12.40
2019-03-23T00:42:22.583Z,12.90
2019-03-23T00:47:26.523Z,12.23
2019-03-23T00:52:30.227Z,12.73
2019-03-23T00:57:33.810Z,12.93
2019-03-23T01:02:41.891Z,12.53
2019-03-23T01:07:45.568Z,12.57
2019-03-23T01:12:49.538Z,13.40
2019-03-23T01:17:53.130Z,14.90
2019-03-23T01:22:56.790Z,12.57
2019-03-23T01:28:00.531Z,13.73
2019-03-23T01:33:04.125Z,13.23
2019-03-23T01:38:07.736Z,13.03
2019-03-23T01:43:11.407Z,13.33
2019-03-23T01:48:15.004Z,13.23
2019-03-23T01:53:18.663Z,12.83
2019-03-23T01:58:22.261Z,12.77
2019-03-23T02:03:25.853Z,13.87
2019-03-23T02:08:29.450Z,14.70
2019-03-23T02:13:33.059Z,13.80
2019-03-23T02:18:36.667Z,12.93
2019-03-23T02:23:40.697Z,14.07
2019-03-23T02:28:44.295Z,13.27
2019-03-23T02:33:48.211Z,15.10
2019-03-23T02:38:51.819Z,13.43
2019-03-23T02:43:55.412Z,13.93
2019-03-23T02:48:59.008Z,14.60
2019-03-23T02:54:02.600Z,14.10
2019-03-23T02:59:06.199Z,14.93
2019-03-23T03:04:09.793Z,14.40
2019-03-23T03:09:13.397Z,13.47
2019-03-23T03:14:16.993Z,15.40
2019-03-23T03:19:20.772Z,16.13
2019-03-23T03:24:24.444Z,16.00
2019-03-23T03:29:28.025Z,15.97
2019-03-23T03:34:31.621Z,16.17
2019-03-23T03:44:31.237Z,16.37
2019-03-23T03:49:34.827Z,15.83
2019-03-23T03:54:38.732Z,16.27
2019-03-23T03:59:42.331Z,16.40
2019-03-23T04:04:45.926Z,15.67
2019-03-23T04:09:49.538Z,15.97
2019-03-23T04:14:53.197Z,16.00
2019-03-23T04:19:56.815Z,15.37
2019-03-23T04:25:00.647Z,16.60
2019-03-23T04:30:06.128Z,15.87
2019-03-23T04:35:09.781Z,16.07
2019-03-23T04:40:13.815Z,16.17
2019-03-23T04:45:17.669Z,16.07
2019-03-23T04:50:21.325Z,16.27
2019-03-23T04:55:25.396Z,15.80
2019-03-23T05:00:29.164Z,15.43
2019-03-23T05:05:32.758Z,15.57
2019-03-23T05:10:36.747Z,15.87
2019-03-23T05:15:40.674Z,15.93
2019-03-23T05:20:44.709Z,15.77
2019-03-23T05:25:48.313Z,15.43
2019-03-23T05:30:51.904Z,16.70
2019-03-23T05:35:55.492Z,15.03
2019-03-23T05:40:59.137Z,15.33
2019-03-23T05:46:02.730Z,15.17
2019-03-23T05:51:06.321Z,15.97
2019-03-23T05:56:09.924Z,17.40
2019-03-23T06:01:13.516Z,14.13
2019-03-23T06:06:36.438Z,13.07
2019-03-23T06:11:40.341Z,14.33
2019-03-23T06:16:43.929Z,13.93
2019-03-23T06:21:47.546Z,12.93
2019-03-23T06:26:51.129Z,14.57
2019-03-23T06:31:55.134Z,15.00
2019-03-23T06:36:58.733Z,14.70
2019-03-23T06:42:02.689Z,14.33
2019-03-23T06:47:06.283Z,15.07
2019-03-23T06:52:10.241Z,15.13
2019-03-23T06:57:14.302Z,16.40
2019-03-23T07:02:17.961Z,15.03
2019-03-23T07:07:21.553Z,13.20
2019-03-23T07:12:25.217Z,13.00
2019-03-23T07:17:28.807Z,12.57
2019-03-23T07:22:32.741Z,13.33
2019-03-23T07:27:36.756Z,15.00
2019-03-23T07:32:40.733Z,15.03
2019-03-23T07:37:44.826Z,18.13
2019-03-23T07:42:48.559Z,16.40
2019-03-23T07:47:52.179Z,15.50
2019-03-23T07:52:55.774Z,15.03
2019-03-23T07:57:59.360Z,14.47
2019-03-23T08:03:03.450Z,15.27
2019-03-23T08:08:07.339Z,14.63
2019-03-23T08:13:11.287Z,15.20
2019-03-23T08:18:15.437Z,13.23
2019-03-23T08:23:19.376Z,13.80
2019-03-23T08:28:23.042Z,13.10
2019-03-23T08:33:27.024Z,13.40
2019-03-23T08:38:30.623Z,13.30
2019-03-23T08:43:34.541Z,13.33
2019-03-23T08:48:38.237Z,12.57
2019-03-23T08:53:41.850Z,11.97
2019-03-23T08:58:44.372Z,12.33
2019-03-23T09:03:52.460Z,11.10
2019-03-23T09:08:53.220Z,12.87
2019-03-23T09:13:56.833Z,12.83
2019-03-23T09:19:00.661Z,14.10
2019-03-23T09:24:04.729Z,13.97
2019-03-23T09:29:10.178Z,14.60
2019-03-23T09:34:13.725Z,15.27
2019-03-23T09:39:17.326Z,13.87
2019-03-23T09:44:20.999Z,15.93
2019-03-23T09:49:24.603Z,15.90
2019-03-23T09:54:28.205Z,16.60
2019-03-23T09:59:31.801Z,16.53
2019-03-23T10:04:35.750Z,15.60
2019-03-23T10:09:39.708Z,16.60
2019-03-23T10:14:43.637Z,16.77
2019-03-23T10:19:47.532Z,16.10
2019-03-23T10:24:51.129Z,15.93
2019-03-23T10:29:54.721Z,16.97
2019-03-23T10:34:58.395Z,16.37
2019-03-23T10:40:02.021Z,17.03
2019-03-23T10:45:07.931Z,16.60
2019-03-23T10:50:13.062Z,16.27
2019-03-23T10:55:17.122Z,17.67
2019-03-23T11:00:20.793Z,18.60
2019-03-23T11:05:24.390Z,20.27
2019-03-23T11:10:27.989Z,18.97
2019-03-23T11:15:31.917Z,20.10
2019-03-23T11:20:35.517Z,20.47
2019-03-23T11:25:39.127Z,20.37
2019-03-23T11:30:42.825Z,19.10
2019-03-23T11:35:46.424Z,19.97
2019-03-23T11:40:54.950Z,16.90
2019-03-23T11:45:55.681Z,17.93
2019-03-23T11:50:59.279Z,17.63
2019-03-23T11:56:03.019Z,17.83
2019-03-23T12:01:07.869Z,15.53
2019-03-23T12:06:11.930Z,15.07
2019-03-23T12:11:15.514Z,17.57
2019-03-23T12:16:19.114Z,16.60
2019-03-23T12:21:22.783Z,16.23
2019-03-23T12:26:26.725Z,15.63
2019-03-23T12:31:30.335Z,13.90
2019-03-23T12:36:33.941Z,16.53
2019-03-23T12:41:37.604Z,17.17
2019-03-23T12:46:48.156Z,19.60
2019-03-23T12:51:47.050Z,18.77
2019-03-23T12:56:50.649Z,19.70
2019-03-23T13:01:54.370Z,18.97
2019-03-23T13:06:57.981Z,19.83
2019-03-23T13:12:01.576Z,19.73
2019-03-23T13:17:05.902Z,18.27
2019-03-23T13:22:23.560Z,17.63
2019-03-23T13:27:18.549Z,17.77
2019-03-23T13:32:22.153Z,16.07
2019-03-23T13:37:25.774Z,16.57
2019-03-23T13:42:29.371Z,15.47
2019-03-23T13:47:32.973Z,15.47
2019-03-23T13:52:36.983Z,14.70
2019-03-23T13:57:40.580Z,15.07
2019-03-23T14:02:44.513Z,14.70
2019-03-23T14:07:48.127Z,13.93
2019-03-23T14:12:51.727Z,13.67
2019-03-23T14:17:55.408Z,12.03
2019-03-23T14:23:02.932Z,12.37
2019-03-23T14:28:04.327Z,14.57
2019-03-23T14:33:07.927Z,14.50
2019-03-23T14:38:11.526Z,16.30
2019-03-23T14:43:15.145Z,16.73
2019-03-23T14:48:19.311Z,17.33
2019-03-23T14:53:23.005Z,16.50
2019-03-23T14:58:26.609Z,14.33
2019-03-23T15:03:30.213Z,14.57
2019-03-23T15:08:33.822Z,13.90
2019-03-23T15:13:37.481Z,15.57
2019-03-23T15:18:41.085Z,14.67
2019-03-23T15:23:44.703Z,16.17
2019-03-23T15:28:48.292Z,17.00
2019-03-23T15:33:51.890Z,14.87
2019-03-23T15:38:55.483Z,19.07
2019-03-23T15:43:59.095Z,17.77
2019-03-23T15:49:02.691Z,19.33
2019-03-23T15:54:06.463Z,20.80
2019-03-23T15:59:10.027Z,20.20
2019-03-23T16:04:13.639Z,20.97
2019-03-23T16:09:17.564Z,20.87
2019-03-23T16:14:21.161Z,19.63
2019-03-23T16:19:24.845Z,18.03
2019-03-23T16:24:28.946Z,16.83
2019-03-23T16:29:32.557Z,19.30
2019-03-23T16:34:36.138Z,19.57
2019-03-23T16:39:39.725Z,20.57
2019-03-23T16:44:43.734Z,21.87
2019-03-23T16:49:47.337Z,21.10
2019-03-23T16:54:50.943Z,21.53
2019-03-23T16:59:54.537Z,23.70
2019-03-23T17:04:58.178Z,24.40
2019-03-23T17:10:03.409Z,25.97
2019-03-23T17:15:10.256Z,27.10
2019-03-23T17:20:14.316Z,27.00
2019-03-23T17:25:17.986Z,28.50
2019-03-23T17:30:22.037Z,27.47
2019-03-23T17:35:26.038Z,27.60
2019-03-23T17:40:29.757Z,27.80
2019-03-23T17:45:33.772Z,27.87
2019-03-23T17:50:37.439Z,22.93
2019-03-23T17:55:41.138Z,26.37
2019-03-23T18:00:45.207Z,30.13
2019-03-23T18:05:48.881Z,24.87
2019-03-23T18:10:52.492Z,25.07
2019-03-23T18:15:56.895Z,26.43
2019-03-23T18:21:00.633Z,22.03
2019-03-23T18:26:04.637Z,22.87
2019-03-23T18:31:08.229Z,23.77
2019-03-23T18:36:11.904Z,22.63
2019-03-23T18:41:15.629Z,22.83
2019-03-23T18:46:19.230Z,24.07
2019-03-23T18:51:23.305Z,23.60
2019-03-23T18:56:26.906Z,22.10
2019-03-23T19:01:30.514Z,20.90
2019-03-23T19:06:34.114Z,23.20
2019-03-23T19:11:37.783Z,21.77
2019-03-23T19:16:41.839Z,25.87
2019-03-23T19:21:45.852Z,25.17
2019-03-23T19:26:49.760Z,25.93
2019-03-23T19:31:53.719Z,24.87
2019-03-23T19:36:57.335Z,25.40
2019-03-23T19:42:01.021Z,24.27
2019-03-23T19:47:04.793Z,22.87
2019-03-23T19:52:08.412Z,24.43
2019-03-23T19:57:12.013Z,25.27
2019-03-23T20:02:15.628Z,24.43
2019-03-23T20:07:19.289Z,23.60
2019-03-23T20:12:22.913Z,22.87
2019-03-23T20:17:26.496Z,21.10
2019-03-23T20:22:30.486Z,23.40
2019-03-23T20:27:34.142Z,24.63
2019-03-23T20:32:37.851Z,22.27
2019-03-23T20:37:41.923Z,24.23
2019-03-23T20:42:45.525Z,24.97
2019-03-23T20:47:49.725Z,23.73
2019-03-23T20:52:53.606Z,24.13
2019-03-23T20:57:57.355Z,24.10
2019-03-23T21:03:01.085Z,27.10
2019-03-23T21:08:04.859Z,24.93
2019-03-23T21:13:08.484Z,27.67
2019-03-23T21:18:12.215Z,26.53
2019-03-23T21:23:16.197Z,29.83
2019-03-23T21:28:19.857Z,26.63
2019-03-23T21:33:23.478Z,26.13
2019-03-23T21:38:27.094Z,23.23
2019-03-23T21:43:31.097Z,20.50
2019-03-23T21:48:34.774Z,22.60
2019-03-23T21:53:38.885Z,22.17
2019-03-23T21:58:42.545Z,21.07
2019-03-23T22:03:46.207Z,20.03
2019-03-23T22:08:49.873Z,19.80
2019-03-23T22:13:53.459Z,21.73
2019-03-23T22:18:57.483Z,20.97
2019-03-23T22:24:01.081Z,21.90
2019-03-23T22:29:04.808Z,21.23
2019-03-23T22:34:08.864Z,20.50
2019-03-23T22:39:12.450Z,19.33
2019-03-23T22:44:16.404Z,20.10
2019-03-23T22:49:20.001Z,17.60
2019-03-23T22:54:23.589Z,18.13
2019-03-23T22:59:27.184Z,18.83
2019-03-23T23:04:31.177Z,19.70
2019-03-23T23:09:34.777Z,18.07
2019-03-23T23:14:38.365Z,17.47
2019-03-23T23:19:41.962Z,18.73
2019-03-23T23:24:45.585Z,17.93
2019-03-23T23:29:49.188Z,16.97
2019-03-23T23:34:52.786Z,18.73
2019-03-23T23:39:56.377Z,17.53
2019-03-23T23:44:59.977Z,17.63
2019-03-23T23:50:04.996Z,18.00
2019-03-23T23:55:09.034Z,17.93
